Time;durP1;ratioP1;P1;durP2;ratioP2;P2;SDS_P1;SDS_P2;PMS_P1;PMS_P2;Temp;Humidity;BMP_temperature;BMP_pressure;BME280_temperature;BME280_humidity;BME280_pressure;Samples;Min_cycle;Max_cycle;Signal;HPM_P1;HPM_P2
2023/10/23 00:01:21;;;;;;;2.58;1.00;;;;;;;7.13;79.56;100250.59;4956236;28;20063;-84
2023/10/23 00:03:48;;;;;;;4.82;1.48;;;;;;;7.12;79.31;100259.28;4947678;28;20047;-83
2023/10/23 00:06:15;;;;;;;1.73;1.00;;;;;;;7.07;79.40;100263.66;4944451;28;20123;-84
2023/10/23 00:08:42;;;;;;;2.63;1.10;;;;;;;7.05;79.51;100260.19;4956917;28;20070;-84
2023/10/23 00:11:09;;;;;;;3.65;1.10;;;;;;;7.03;79.54;100264.53;4945059;28;20062;-84
2023/10/23 00:13:35;;;;;;;1.20;0.90;;;;;;;7.07;79.23;100259.31;4959348;28;20521;-83
2023/10/23 00:16:02;;;;;;;3.17;0.95;;;;;;;6.98;79.49;100259.34;4954374;28;20055;-83
2023/10/23 00:18:29;;;;;;;2.63;0.90;;;;;;;6.86;79.66;100260.22;4955745;28;20046;-85
2023/10/23 00:20:56;;;;;;;2.25;0.80;;;;;;;6.91;79.35;100271.53;4951918;28;20046;-83
2023/10/23 00:23:23;;;;;;;2.05;0.80;;;;;;;6.91;79.26;100263.72;4934739;28;20051;-83
2023/10/23 00:25:49;;;;;;;1.40;0.80;;;;;;;7.00;79.08;100260.19;4952902;28;20043;-93
2023/10/23 00:28:16;;;;;;;1.50;0.88;;;;;;;6.80;79.65;100265.47;4945476;28;20057;-83
2023/10/23 00:30:43;;;;;;;1.83;0.90;;;;;;;6.78;79.51;100272.44;4940780;28;20082;-85
2023/10/23 00:33:11;;;;;;;2.55;1.20;;;;;;;6.75;79.86;100272.44;4944276;28;20062;-85
2023/10/23 00:35:38;;;;;;;1.70;1.17;;;;;;;6.64;80.23;100267.25;4946440;28;20058;-83
2023/10/23 00:38:05;;;;;;;3.45;1.05;;;;;;;6.68;79.99;100266.38;4950764;28;20526;-84
2023/10/23 00:40:32;;;;;;;4.43;1.40;;;;;;;6.75;80.15;100262.88;4950844;28;20050;-83
2023/10/23 00:43:11;;;;;;;3.65;1.10;;;;;;;6.76;80.85;100269.84;4953391;28;20043;-83
2023/10/23 00:45:48;;;;;;;1.48;0.82;;;;;;;6.65;81.27;100262.88;4946522;28;20053;-85
2023/10/23 00:48:15;;;;;;;2.28;1.40;;;;;;;6.67;81.01;100272.44;4948666;28;20055;-83
2023/10/23 00:50:42;;;;;;;2.90;1.10;;;;;;;6.63;80.29;100268.09;4956619;28;20074;-87
2023/10/23 00:53:09;;;;;;;1.48;0.90;;;;;;;6.50;80.61;100267.25;4951812;28;20569;-84
2023/10/23 00:55:36;;;;;;;1.50;0.80;;;;;;;6.67;79.45;100264.63;4960166;28;20479;-83
2023/10/23 00:58:02;;;;;;;1.50;0.90;;;;;;;6.71;79.48;100268.97;4950471;28;20134;-83
2023/10/23 01:00:30;;;;;;;1.00;0.90;;;;;;;6.47;80.30;100262.03;4951086;28;20063;-83
2023/10/23 01:02:57;;;;;;;1.45;0.93;;;;;;;6.49;80.18;100262.94;4934517;28;20082;-89
2023/10/23 01:05:24;;;;;;;2.05;1.08;;;;;;;6.35;80.32;100264.69;4947438;28;20054;-85
2023/10/23 01:07:51;;;;;;;1.83;1.02;;;;;;;6.35;80.79;100259.47;4967284;28;20049;-87
2023/10/23 01:10:17;;;;;;;1.48;0.90;;;;;;;6.26;80.97;100260.34;4938815;28;20051;-87
2023/10/23 01:12:44;;;;;;;3.97;0.95;;;;;;;6.21;80.96;100260.34;4941023;28;20055;-84
2023/10/23 01:15:11;;;;;;;6.43;2.42;;;;;;;6.28;80.77;100255.13;4947304;28;20105;-83
2023/10/23 01:17:38;;;;;;;1.73;1.30;;;;;;;6.35;79.84;100252.50;4959958;28;20054;-83
2023/10/23 01:20:08;;;;;;;2.08;1.00;;;;;;;6.32;80.25;100251.66;4945871;28;20414;-83
2023/10/23 01:22:35;;;;;;;2.45;1.02;;;;;;;6.34;79.82;100252.50;4946100;28;20043;-83
2023/10/23 01:25:01;;;;;;;3.28;1.25;;;;;;;6.26;80.01;100258.59;4944986;28;20050;-83
2023/10/23 01:27:28;;;;;;;2.85;1.10;;;;;;;6.05;80.94;100261.19;4947984;28;20159;-85
2023/10/23 01:29:55;;;;;;;2.55;1.00;;;;;;;6.22;79.78;100256.84;4947831;28;20062;-84
2023/10/23 01:32:22;;;;;;;2.15;1.10;;;;;;;6.22;80.04;100251.63;4947294;28;20047;-83
2023/10/23 01:34:49;;;;;;;2.72;1.10;;;;;;;6.19;80.33;100250.78;4953143;28;20054;-87
2023/10/23 01:37:16;;;;;;;1.88;1.20;;;;;;;6.18;80.71;100255.09;4948112;28;20055;-83
2023/10/23 01:39:42;;;;;;;1.45;1.02;;;;;;;6.22;80.17;100249.03;4949376;28;20419;-83
2023/10/23 01:42:09;;;;;;;3.25;1.20;;;;;;;6.25;79.81;100246.41;4931719;28;20067;-83
2023/10/23 01:44:37;;;;;;;2.70;1.60;;;;;;;6.31;79.98;100240.34;4946426;28;20054;-83
2023/10/23 01:47:04;;;;;;;2.17;1.10;;;;;;;6.17;79.65;100248.19;4958908;28;20046;-83
2023/10/23 01:49:31;;;;;;;1.95;1.00;;;;;;;6.05;80.29;100249.06;4955992;28;20474;-83
2023/10/23 01:51:59;;;;;;;2.45;1.30;;;;;;;6.09;79.84;100244.69;4941425;28;20106;-85
2023/10/23 01:54:26;;;;;;;2.50;0.95;;;;;;;6.13;80.27;100246.44;4962343;28;20146;-86
2023/10/23 01:56:53;;;;;;;2.00;1.00;;;;;;;6.11;80.16;100250.75;4948448;28;20156;-85
2023/10/23 01:59:21;;;;;;;1.25;1.13;;;;;;;6.23;80.08;100247.31;4941798;28;20070;-83
2023/10/23 02:01:48;;;;;;;2.67;1.30;;;;;;;6.17;79.94;100232.53;4932125;28;20053;-88
2023/10/23 02:04:14;;;;;;;4.65;1.80;;;;;;;5.90;81.17;100239.44;4945852;28;20395;-86
2023/10/23 02:06:41;;;;;;;2.35;1.58;;;;;;;5.95;81.45;100241.19;4948717;28;20081;-87
2023/10/23 02:09:08;;;;;;;1.45;1.27;;;;;;;6.13;80.44;100241.22;4949867;28;20058;-84
2023/10/23 02:11:35;;;;;;;2.45;1.05;;;;;;;6.08;80.44;100243.84;4939150;28;20055;-84
2023/10/23 02:14:02;;;;;;;2.00;1.10;;;;;;;6.12;80.23;100247.28;4951937;28;20057;-84
2023/10/23 02:16:29;;;;;;;1.58;0.98;;;;;;;6.02;80.31;100243.81;4949782;28;20047;-85
2023/10/23 02:18:56;;;;;;;1.70;1.15;;;;;;;6.01;80.32;100249.03;4935372;28;20043;-87
2023/10/23 02:21:23;;;;;;;1.15;0.80;;;;;;;6.05;80.14;100253.38;4949173;28;20073;-87
2023/10/23 02:23:50;;;;;;;1.73;1.10;;;;;;;5.83;80.74;100252.47;4959034;28;20142;-94
2023/10/23 02:26:23;;;;;;;3.38;1.30;;;;;;;5.88;80.27;100256.81;4947961;28;20043;-85
2023/10/23 02:28:50;;;;;;;3.03;1.40;;;;;;;5.93;79.91;100260.28;4939808;28;20051;-85
2023/10/23 02:31:17;;;;;;;3.58;0.90;;;;;;;5.97;79.85;100255.97;4941947;28;20051;-83
2023/10/23 02:33:44;;;;;;;1.10;0.80;;;;;;;5.75;80.86;100260.28;4950341;28;20537;-84
2023/10/23 02:36:11;;;;;;;2.97;1.27;;;;;;;5.83;80.55;100263.72;4953653;28;20165;-83
2023/10/23 02:38:38;;;;;;;2.55;1.10;;;;;;;5.78;81.00;100260.28;4959271;28;20047;-87
2023/10/23 02:41:05;;;;;;;1.35;0.73;;;;;;;5.69;80.73;100261.13;4947513;28;20059;-83
2023/10/23 02:43:32;;;;;;;2.00;1.10;;;;;;;5.79;80.55;100272.41;4959782;28;20055;-84
2023/10/23 02:46:02;;;;;;;2.75;1.08;;;;;;;5.51;81.63;100264.53;4950442;28;20050;-85
2023/10/23 02:48:29;;;;;;;2.95;1.02;;;;;;;5.68;81.08;100271.53;4931905;28;20402;-84
2023/10/23 02:50:57;;;;;;;1.30;1.00;;;;;;;5.66;80.95;100270.66;4934742;28;20046;-84
2023/10/23 02:53:32;;;;;;;2.03;1.27;;;;;;;5.73;80.76;100275.00;4945884;28;20074;-83
2023/10/23 02:56:00;;;;;;;3.05;1.70;;;;;;;5.42;82.40;100274.94;4937087;28;20049;-84
2023/10/23 02:58:28;;;;;;;3.05;1.35;;;;;;;5.57;81.99;100267.16;4922864;28;20066;-84
2023/10/23 03:00:54;;;;;;;1.60;1.40;;;;;;;5.67;81.12;100269.78;4938712;28;20058;-83
2023/10/23 03:03:21;;;;;;;2.70;1.20;;;;;;;5.54;81.70;100269.75;4935373;28;20534;-84
2023/10/23 03:05:48;;;;;;;3.88;1.45;;;;;;;5.56;81.47;100273.25;4936470;28;20054;-83
2023/10/23 03:08:15;;;;;;;1.85;1.40;;;;;;;5.43;81.03;100276.69;4952406;28;20054;-84
2023/10/23 03:10:42;;;;;;;3.08;1.20;;;;;;;5.49;81.64;100278.41;4953270;28;20043;-83
2023/10/23 03:13:09;;;;;;;1.75;0.93;;;;;;;5.54;81.16;100277.56;4940935;28;20105;-86
2023/10/23 03:15:36;;;;;;;2.85;1.20;;;;;;;5.46;81.14;100271.47;4944631;28;20043;-84
2023/10/23 03:18:05;;;;;;;2.53;1.30;;;;;;;5.45;80.90;100282.75;4936709;28;20074;-84
2023/10/23 03:20:32;;;;;;;1.52;1.20;;;;;;;5.48;81.08;100280.16;4948056;28;20053;-85
2023/10/23 03:22:59;;;;;;;2.28;1.10;;;;;;;5.50;80.43;100275.81;4933802;28;20055;-85
2023/10/23 03:25:25;;;;;;;1.73;1.02;;;;;;;5.63;80.26;100276.72;4945692;28;20087;-84
2023/10/23 03:27:52;;;;;;;1.85;1.10;;;;;;;5.11;82.02;100280.00;4936242;28;20043;-83
2023/10/23 03:30:19;;;;;;;2.88;1.13;;;;;;;5.22;81.99;100275.72;4942356;28;20051;-84
2023/10/23 03:32:46;;;;;;;2.35;1.40;;;;;;;5.24;82.22;100280.91;4956967;28;20101;-83
2023/10/23 03:35:14;;;;;;;3.60;1.25;;;;;;;5.08;83.33;100274.78;4943679;28;20058;-83
2023/10/23 03:37:41;;;;;;;2.28;1.27;;;;;;;5.00;83.89;100284.28;4939484;28;20039;-84
2023/10/23 03:40:10;;;;;;;1.38;1.20;;;;;;;4.95;83.99;100292.03;4934717;28;20141;-86
2023/10/23 03:42:37;;;;;;;3.20;1.52;;;;;;;4.91;83.97;100294.63;4945532;28;20046;-83
2023/10/23 03:45:04;;;;;;;3.60;2.63;;;;;;;4.92;84.92;100291.19;4955050;28;20050;-86
2023/10/23 03:47:31;;;;;;;4.50;2.60;;;;;;;4.82;85.41;100290.25;4959576;28;20054;-83
2023/10/23 03:49:58;;;;;;;3.20;2.40;;;;;;;4.84;85.64;100284.19;4944663;28;20048;-84
2023/10/23 03:52:25;;;;;;;4.38;1.92;;;;;;;5.22;84.15;100286.13;4949672;28;20062;-83
2023/10/23 03:54:52;;;;;;;1.95;1.52;;;;;;;5.42;82.18;100290.53;4933598;28;20043;-86
2023/10/23 03:57:18;;;;;;;3.65;1.55;;;;;;;5.30;81.89;100277.47;4943220;28;20047;-83
2023/10/23 03:59:45;;;;;;;5.75;2.22;;;;;;;5.10;82.96;100278.28;4952940;28;20055;-83
2023/10/23 04:02:12;;;;;;;1.83;1.60;;;;;;;5.25;82.23;100271.41;4937687;28;20086;-85
2023/10/23 04:04:39;;;;;;;3.08;1.45;;;;;;;5.22;82.60;100280.06;4944130;28;20049;-83
2023/10/23 04:07:06;;;;;;;2.92;1.30;;;;;;;5.36;81.87;100273.16;4934890;28;20051;-84
2023/10/23 04:09:32;;;;;;;1.63;0.98;;;;;;;5.37;82.62;100274.03;4947203;28;20098;-84
2023/10/23 04:11:59;;;;;;;2.53;1.38;;;;;;;5.29;82.40;100267.94;4948711;28;20098;-84
2023/10/23 04:14:26;;;;;;;1.67;1.13;;;;;;;5.35;82.33;100265.34;4956394;28;20051;-84
2023/10/23 04:16:53;;;;;;;2.35;1.52;;;;;;;5.27;81.64;100264.44;4949182;28;20507;-84
2023/10/23 04:19:20;;;;;;;1.70;1.40;;;;;;;5.17;81.72;100259.22;4957020;28;20058;-83
2023/10/23 04:21:46;;;;;;;2.03;1.00;;;;;;;5.19;81.21;100261.84;4943433;28;20106;-85
2023/10/23 04:24:13;;;;;;;3.53;1.23;;;;;;;5.13;81.46;100267.88;4959094;28;20047;-84
2023/10/23 04:26:40;;;;;;;3.35;1.13;;;;;;;5.08;81.93;100256.56;4958178;28;20421;-83
2023/10/23 04:29:08;;;;;;;2.97;1.17;;;;;;;5.08;81.25;100256.56;4943550;28;20055;-83
2023/10/23 04:31:35;;;;;;;5.13;1.27;;;;;;;5.04;81.69;100244.44;4943742;28;20115;-86
2023/10/23 04:34:02;;;;;;;1.65;1.15;;;;;;;5.09;81.25;100253.13;4942009;28;20051;-83
2023/10/23 04:36:29;;;;;;;1.48;1.38;;;;;;;5.04;81.31;100252.25;4967712;28;20054;-84
2023/10/23 04:38:56;;;;;;;2.85;1.10;;;;;;;4.97;81.98;100250.47;4973519;28;20042;-84
2023/10/23 04:41:23;;;;;;;2.42;1.50;;;;;;;5.05;81.44;100246.16;4944973;28;20071;-84
2023/10/23 04:43:50;;;;;;;2.28;1.20;;;;;;;4.92;81.96;100245.22;4955833;28;20050;-84
2023/10/23 04:46:17;;;;;;;3.08;1.17;;;;;;;4.90;82.05;100233.09;4947703;28;20055;-83
2023/10/23 04:48:44;;;;;;;3.65;1.20;;;;;;;4.86;81.92;100243.47;4958586;28;20047;-85
2023/10/23 04:51:11;;;;;;;1.38;0.88;;;;;;;4.91;81.49;100243.50;4957279;28;20070;-84
2023/10/23 04:53:38;;;;;;;1.88;1.10;;;;;;;4.86;81.59;100237.41;4954056;28;20058;-83
2023/10/23 04:56:05;;;;;;;1.35;1.00;;;;;;;4.99;81.27;100238.34;4963267;28;20050;-83
2023/10/23 04:58:32;;;;;;;2.08;1.20;;;;;;;4.89;81.52;100240.00;4952332;28;20051;-85
2023/10/23 05:00:59;;;;;;;3.15;1.23;;;;;;;4.96;81.90;100235.72;4952446;28;20062;-85
2023/10/23 05:03:26;;;;;;;1.45;1.13;;;;;;;5.08;80.77;100242.69;4957218;28;20419;-83
2023/10/23 05:05:53;;;;;;;3.47;1.15;;;;;;;4.95;80.87;100240.03;4939632;28;20054;-85
2023/10/23 05:08:20;;;;;;;4.50;1.20;;;;;;;4.72;82.04;100246.84;4938550;28;20055;-83
2023/10/23 05:10:47;;;;;;;2.88;1.40;;;;;;;4.70;82.95;100246.84;4944476;28;20055;-82
2023/10/23 05:13:14;;;;;;;1.58;1.08;;;;;;;4.67;82.07;100241.63;4937879;28;20055;-85
2023/10/23 05:15:40;;;;;;;3.03;1.25;;;;;;;4.72;81.96;100242.50;4948107;28;20045;-83
2023/10/23 05:18:08;;;;;;;3.42;1.20;;;;;;;4.90;82.11;100240.91;4957173;28;20142;-82
2023/10/23 05:20:35;;;;;;;1.05;0.80;;;;;;;4.98;81.88;100237.47;4951226;28;20054;-83
2023/10/23 05:23:03;;;;;;;1.90;1.30;;;;;;;4.96;81.71;100240.91;4951249;28;20055;-83
2023/10/23 05:25:30;;;;;;;2.30;1.10;;;;;;;4.80;82.00;100246.03;4950373;28;20113;-83
2023/10/23 05:27:57;;;;;;;1.88;1.02;;;;;;;4.80;81.98;100248.63;4940333;28;20069;-84
2023/10/23 05:30:23;;;;;;;2.70;0.80;;;;;;;4.77;82.12;100253.81;4964747;28;20051;-83
2023/10/23 05:32:50;;;;;;;3.00;1.30;;;;;;;4.91;81.35;100253.03;4948481;28;20077;-90
2023/10/23 05:35:17;;;;;;;2.38;1.10;;;;;;;4.76;82.09;100249.47;4950651;28;20061;-83
2023/10/23 05:37:44;;;;;;;3.17;1.17;;;;;;;4.77;81.74;100247.75;4947091;28;20054;-83
2023/10/23 05:40:11;;;;;;;3.30;1.00;;;;;;;4.66;82.33;100248.56;4942956;28;20061;-84
2023/10/23 05:42:38;;;;;;;3.58;1.33;;;;;;;4.60;82.03;100250.25;4942081;28;20062;-85
2023/10/23 05:45:05;;;;;;;3.05;0.75;;;;;;;4.55;82.11;100257.13;4948716;28;20051;-83
2023/10/23 05:47:33;;;;;;;4.10;1.00;;;;;;;4.55;82.08;100249.34;4956652;28;20051;-83
2023/10/23 05:50:00;;;;;;;1.88;1.20;;;;;;;4.55;81.32;100255.44;4959045;28;20471;-83
2023/10/23 05:52:26;;;;;;;3.83;1.10;;;;;;;4.55;81.16;100249.34;4951390;28;20055;-83
2023/10/23 05:54:53;;;;;;;2.05;0.95;;;;;;;4.63;80.76;100250.28;4946362;28;20089;-83
2023/10/23 05:57:20;;;;;;;2.67;1.10;;;;;;;4.41;81.30;100251.88;4951113;28;20070;-83
2023/10/23 05:59:47;;;;;;;3.45;0.93;;;;;;;4.54;80.91;100253.69;4944257;28;20058;-84
2023/10/23 06:02:14;;;;;;;2.85;1.25;;;;;;;4.37;81.74;100260.50;4959297;28;20435;-85
2023/10/23 06:04:44;;;;;;;3.38;1.05;;;;;;;4.33;82.20;100254.38;4964605;28;20050;-86
2023/10/23 06:07:12;;;;;;;5.75;1.20;;;;;;;4.41;81.81;100257.91;4962414;28;20062;-84
2023/10/23 06:09:39;;;;;;;3.25;1.27;;;;;;;4.45;81.74;100259.69;4963890;28;20062;-84
2023/10/23 06:12:09;;;;;;;4.35;1.10;;;;;;;4.32;82.07;100257.88;4959745;28;20038;-84
2023/10/23 06:14:36;;;;;;;3.00;1.10;;;;;;;4.22;82.62;100261.25;4980199;28;20054;-83
2023/10/23 06:17:03;;;;;;;2.08;1.00;;;;;;;4.50;81.76;100263.19;4941113;28;20051;-86
2023/10/23 06:19:33;;;;;;;1.48;0.82;;;;;;;4.56;82.12;100269.28;4949467;28;20055;-83
2023/10/23 06:22:00;;;;;;;2.17;1.20;;;;;;;4.56;82.54;100264.09;4941248;28;20066;-83
2023/10/23 06:24:27;;;;;;;2.25;1.02;;;;;;;4.48;82.76;100270.09;4943619;28;20047;-83
2023/10/23 06:26:54;;;;;;;3.13;1.00;;;;;;;4.52;82.62;100260.59;4950192;28;20106;-83
2023/10/23 06:29:21;;;;;;;1.30;1.00;;;;;;;4.71;81.53;100256.41;4951848;28;20047;-83
2023/10/23 06:31:48;;;;;;;3.22;1.00;;;;;;;4.69;81.54;100263.28;4950106;28;20399;-84
2023/10/23 06:34:14;;;;;;;1.48;0.95;;;;;;;4.58;82.83;100258.03;4937424;28;20051;-83
2023/10/23 06:36:42;;;;;;;6.30;1.20;;;;;;;4.62;82.84;100258.91;4953933;28;20057;-85
2023/10/23 06:39:09;;;;;;;3.22;1.10;;;;;;;4.61;82.67;100258.06;4935261;28;20501;-85
2023/10/23 06:41:36;;;;;;;3.97;1.10;;;;;;;4.72;81.76;100258.09;4958358;28;20043;-82
2023/10/23 06:44:05;;;;;;;3.83;1.20;;;;;;;4.69;82.40;100258.09;4955431;28;20138;-83
2023/10/23 06:46:32;;;;;;;1.83;1.15;;;;;;;4.72;82.49;100250.31;4947840;28;20055;-84
2023/10/23 06:48:59;;;;;;;3.15;1.23;;;;;;;4.70;82.44;100249.44;4953056;28;20459;-83
2023/10/23 06:51:26;;;;;;;5.25;1.40;;;;;;;4.70;83.26;100246.84;4939529;28;20594;-84
2023/10/23 06:53:53;;;;;;;5.47;1.10;;;;;;;4.86;82.18;100246.06;4949015;28;20487;-84
2023/10/23 06:56:20;;;;;;;5.90;1.45;;;;;;;4.94;82.47;100251.31;4946705;28;20070;-84
2023/10/23 06:58:47;;;;;;;2.90;1.02;;;;;;;4.97;81.77;100247.88;4952445;28;20047;-85
2023/10/23 07:01:14;;;;;;;6.03;1.42;;;;;;;5.01;82.93;100254.78;4944290;28;20122;-85
2023/10/23 07:03:43;;;;;;;3.97;1.48;;;;;;;5.11;82.49;100255.72;4943718;28;20061;-83
2023/10/23 07:06:11;;;;;;;6.32;1.50;;;;;;;5.14;83.88;100256.63;4939196;28;20055;-83
2023/10/23 07:08:39;;;;;;;5.28;1.48;;;;;;;5.28;83.58;100261.00;4935253;28;20043;-86
2023/10/23 07:11:14;;;;;;;7.10;1.90;;;;;;;5.11;82.72;100271.31;4928774;28;20039;-84
2023/10/23 07:13:41;;;;;;;2.72;1.40;;;;;;;5.09;85.10;100267.88;4952067;28;20690;-84
2023/10/23 07:16:09;;;;;;;1.75;1.38;;;;;;;5.25;85.69;100258.38;4950445;28;20104;-83
2023/10/23 07:18:37;;;;;;;3.83;1.23;;;;;;;5.34;84.72;100255.81;4939600;28;20067;-83
2023/10/23 07:21:04;;;;;;;7.70;1.58;;;;;;;5.39;85.52;100257.56;4933979;28;20074;-83
2023/10/23 07:23:31;;;;;;;5.93;1.50;;;;;;;5.38;85.40;100257.56;4955205;28;20050;-84
2023/10/23 07:26:04;;;;;;;5.72;1.60;;;;;;;5.38;85.42;100255.81;4955257;28;20051;-84
2023/10/23 07:28:30;;;;;;;2.60;1.37;;;;;;;5.42;85.52;100241.09;4955934;28;20061;-84
2023/10/23 07:30:57;;;;;;;3.60;1.85;;;;;;;5.52;84.68;100237.66;4951348;28;20309;-83
2023/10/23 07:33:24;;;;;;;4.97;1.52;;;;;;;5.54;84.94;100238.50;4966581;28;20052;-83
2023/10/23 07:36:02;;;;;;;2.30;1.20;;;;;;;5.60;85.72;100240.25;4935531;28;20047;-87
2023/10/23 07:38:29;;;;;;;4.28;1.70;;;;;;;5.63;85.47;100239.41;4934688;28;20082;-86
2023/10/23 07:40:57;;;;;;;4.57;1.63;;;;;;;5.66;84.05;100237.69;4937563;28;20051;-83
2023/10/23 07:43:28;;;;;;;2.67;0.98;;;;;;;5.68;84.03;100232.47;4954901;28;20047;-83
2023/10/23 07:45:56;;;;;;;2.10;1.10;;;;;;;5.71;84.43;100229.88;4945792;28;20051;-83
2023/10/23 07:48:41;;;;;;;2.58;0.80;;;;;;;5.73;84.50;100230.75;4956389;28;20055;-84
2023/10/23 07:51:08;;;;;;;2.60;1.13;;;;;;;5.83;85.45;100242.03;4954053;28;20051;-83
2023/10/23 07:53:35;;;;;;;1.52;0.90;;;;;;;5.87;83.44;100229.03;4950200;28;20054;-85
2023/10/23 07:56:05;;;;;;;2.90;0.88;;;;;;;5.87;83.46;100226.41;4944365;28;20133;-84
2023/10/23 07:58:33;;;;;;;9.32;1.20;;;;;;;5.92;83.73;100216.88;4957759;28;20047;-83
2023/10/23 08:01:11;;;;;;;3.35;1.02;;;;;;;6.08;85.63;100222.09;4962902;28;20050;-86
2023/10/23 08:03:38;;;;;;;7.43;1.35;;;;;;;6.14;85.54;100221.25;4949075;28;20047;-83
2023/10/23 08:06:07;;;;;;;4.43;1.63;;;;;;;6.24;86.15;100223.84;4941874;28;20055;-85
2023/10/23 08:08:35;;;;;;;4.38;2.03;;;;;;;6.28;86.34;100231.66;4947451;28;20051;-85
2023/10/23 08:11:03;;;;;;;3.65;1.23;;;;;;;6.30;85.80;100235.13;4951477;28;20054;-84
2023/10/23 08:13:31;;;;;;;2.50;1.73;;;;;;;6.34;85.39;100232.50;4954175;28;20047;-84
2023/10/23 08:15:58;;;;;;;5.18;1.80;;;;;;;6.40;85.73;100227.31;4957297;28;20105;-85
2023/10/23 08:18:27;;;;;;;7.40;1.60;;;;;;;6.58;86.54;100223.78;4978864;28;20061;-83
2023/10/23 08:21:12;;;;;;;3.80;2.25;;;;;;;6.58;86.43;100217.72;4940980;28;20047;-83
2023/10/23 08:23:39;;;;;;;11.65;1.80;;;;;;;6.66;86.53;100226.38;4973881;28;20054;-83
2023/10/23 08:26:06;;;;;;;5.32;2.35;;;;;;;6.86;87.26;100223.72;4959645;28;20513;-83
2023/10/23 08:28:33;;;;;;;5.07;1.88;;;;;;;6.92;87.24;100218.50;4956583;28;20050;-83
2023/10/23 08:31:21;;;;;;;5.47;1.85;;;;;;;7.10;87.63;100227.13;4960797;28;20101;-86
2023/10/23 08:34:04;;;;;;;4.75;2.20;;;;;;;7.15;87.26;100220.13;4947320;28;20058;-85
2023/10/23 08:36:32;;;;;;;4.13;2.15;;;;;;;7.08;87.17;100221.91;4950357;28;20110;-86
2023/10/23 08:38:59;;;;;;;9.52;2.35;;;;;;;7.25;87.27;100224.41;4949850;28;20137;-84
2023/10/23 08:41:27;;;;;;;6.28;2.33;;;;;;;7.40;87.57;100220.00;4962826;28;20062;-85
2023/10/23 08:43:55;;;;;;;6.13;2.47;;;;;;;7.39;87.36;100218.28;4944947;28;20054;-83
2023/10/23 08:46:27;;;;;;;21.10;3.10;;;;;;;7.53;87.25;100213.84;4934868;28;20047;-85
2023/10/23 08:48:54;;;;;;;9.43;2.40;;;;;;;7.56;87.28;100206.00;4946788;28;20455;-83
2023/10/23 08:51:21;;;;;;;5.45;2.33;;;;;;;7.54;87.16;100205.13;4943329;28;20073;-84
2023/10/23 08:53:55;;;;;;;4.43;2.67;;;;;;;7.77;87.44;100214.56;4947286;28;20047;-83
2023/10/23 08:56:25;;;;;;;3.67;1.88;;;;;;;7.74;86.92;100197.16;4954677;28;20058;-83
2023/10/23 08:58:57;;;;;;;12.23;2.40;;;;;;;7.94;87.23;100207.44;4946985;28;20100;-84
2023/10/23 09:01:24;;;;;;;6.95;2.28;;;;;;;7.96;86.78;100203.06;4947971;28;20117;-83
2023/10/23 09:03:52;;;;;;;4.60;2.30;;;;;;;7.93;86.42;100200.47;4947682;28;20051;-84
2023/10/23 09:06:31;;;;;;;5.20;2.22;;;;;;;8.01;86.66;100196.06;4936129;28;20047;-83
2023/10/23 09:08:57;;;;;;;6.10;2.13;;;;;;;8.19;86.64;100199.41;4954461;28;20101;-85
2023/10/23 09:11:43;;;;;;;7.90;2.50;;;;;;;8.26;86.63;100195.84;4951770;28;20055;-86
2023/10/23 09:14:24;;;;;;;3.90;2.97;;;;;;;8.24;85.75;100201.97;4940151;28;20059;-85
2023/10/23 09:16:52;;;;;;;5.40;2.33;;;;;;;8.34;86.13;100206.22;4938323;28;20043;-85
2023/10/23 09:19:27;;;;;;;3.65;2.53;;;;;;;8.43;85.58;100197.41;4951542;28;20085;-84
2023/10/23 09:21:55;;;;;;;8.48;2.63;;;;;;;8.36;85.92;100187.03;4950681;28;20121;-85
2023/10/23 09:24:23;;;;;;;7.78;2.45;;;;;;;8.57;86.17;100174.63;4949054;28;20051;-84
2023/10/23 09:26:51;;;;;;;4.38;2.78;;;;;;;8.67;85.83;100173.66;4941128;28;20086;-85
2023/10/23 09:29:24;;;;;;;5.10;2.38;;;;;;;8.84;85.85;100170.84;4958691;28;20051;-86
2023/10/23 09:31:53;;;;;;;5.47;2.63;;;;;;;8.96;85.63;100177.66;4958535;28;20047;-86
2023/10/23 09:34:21;;;;;;;8.82;3.00;;;;;;;8.99;85.16;100172.41;4959366;28;20043;-84
2023/10/23 09:36:52;;;;;;;9.48;2.80;;;;;;;8.99;85.22;100175.03;4951013;28;20114;-85
2023/10/23 09:39:23;;;;;;;6.78;3.00;;;;;;;8.92;84.39;100181.22;4943332;28;20050;-86
2023/10/23 09:41:50;;;;;;;8.40;2.97;;;;;;;8.98;84.41;100162.81;4939928;28;20058;-88
2023/10/23 09:44:17;;;;;;;8.82;2.83;;;;;;;9.04;83.94;100162.75;4952630;28;20057;-84
2023/10/23 09:46:46;;;;;;;4.57;2.88;;;;;;;9.28;84.28;100160.66;4946056;28;20054;-85
2023/10/23 09:49:13;;;;;;;6.05;2.70;;;;;;;9.34;83.75;100170.19;4939516;28;20047;-85
2023/10/23 09:51:40;;;;;;;9.10;3.60;;;;;;;9.40;83.55;100162.25;4958218;28;20163;-85
2023/10/23 09:54:12;;;;;;;8.20;3.47;;;;;;;9.51;83.91;100167.31;4931158;28;20059;-84
2023/10/23 09:56:40;;;;;;;6.88;3.75;;;;;;;9.53;83.91;100176.91;4953030;28;20050;-85
2023/10/23 09:59:08;;;;;;;11.25;3.25;;;;;;;9.45;83.33;100175.28;4951304;28;20053;-84
2023/10/23 10:01:47;;;;;;;6.25;3.30;;;;;;;9.58;83.55;100168.97;4948735;28;20054;-85
2023/10/23 10:04:39;;;;;;;6.60;3.15;;;;;;;9.39;83.12;100164.00;4939509;28;20050;-85
2023/10/23 10:07:23;;;;;;;6.28;3.25;;;;;;;9.25;82.94;100165.94;4941807;28;20571;-85
2023/10/23 10:09:50;;;;;;;7.95;3.28;;;;;;;9.45;83.36;100154.31;4964897;28;20367;-85
2023/10/23 10:12:18;;;;;;;7.72;2.80;;;;;;;9.64;83.55;100165.38;4939286;28;20125;-88
2023/10/23 10:14:46;;;;;;;10.75;4.00;;;;;;;9.72;83.17;100171.38;4950026;28;20142;-85
2023/10/23 10:17:16;;;;;;;11.02;3.58;;;;;;;9.72;83.44;100169.63;4961787;28;20051;-84
2023/10/23 10:19:43;;;;;;;6.57;3.58;;;;;;;9.82;83.20;100161.59;4953793;28;20053;-85
2023/10/23 10:22:22;;;;;;;6.75;3.45;;;;;;;9.61;82.52;100157.59;4947141;28;20055;-86
2023/10/23 10:24:52;;;;;;;29.70;4.90;;;;;;;9.84;83.42;100162.44;4950387;28;20058;-85
2023/10/23 10:27:19;;;;;;;5.85;3.40;;;;;;;9.87;82.80;100154.53;4946345;28;20051;-85
2023/10/23 10:29:46;;;;;;;6.38;3.00;;;;;;;9.80;83.06;100147.66;4947690;28;20050;-84
2023/10/23 10:32:13;;;;;;;6.93;3.17;;;;;;;9.83;83.09;100139.75;4937882;28;20061;-85
2023/10/23 10:34:46;;;;;;;9.68;3.45;;;;;;;9.82;82.38;100138.00;4958406;28;20098;-84
2023/10/23 10:37:28;;;;;;;5.28;3.22;;;;;;;9.80;82.57;100137.19;4953340;28;20058;-85
2023/10/23 10:39:55;;;;;;;4.60;2.90;;;;;;;9.88;82.39;100132.69;4938404;28;20062;-85
2023/10/23 10:42:26;;;;;;;5.85;2.75;;;;;;;9.88;82.22;100125.69;4949775;28;20083;-84
2023/10/23 10:44:59;;;;;;;4.70;2.75;;;;;;;9.85;82.58;100124.88;4944857;28;20064;-86
2023/10/23 10:47:53;;;;;;;6.15;3.30;;;;;;;9.91;82.29;100119.53;4944689;28;20050;-85
2023/10/23 10:50:50;;;;;;;5.18;3.00;;;;;;;9.72;81.96;100111.97;4940890;28;20058;-85
2023/10/23 10:53:17;;;;;;;8.52;3.17;;;;;;;9.92;81.86;100110.75;4939283;28;20047;-84
2023/10/23 10:55:47;;;;;;;5.82;3.03;;;;;;;9.92;81.91;100102.88;4939991;28;20043;-85
2023/10/23 10:58:15;;;;;;;5.97;3.05;;;;;;;10.08;81.97;100093.88;4954825;28;20046;-84
2023/10/23 11:00:42;;;;;;;4.85;2.92;;;;;;;10.14;81.68;100095.50;4960645;28;20055;-85
2023/10/23 11:03:09;;;;;;;11.70;3.35;;;;;;;10.22;81.73;100090.97;4951675;28;20051;-84
2023/10/23 11:05:37;;;;;;;10.80;3.90;;;;;;;10.18;82.14;100086.69;4953837;28;20106;-88
2023/10/23 11:08:04;;;;;;;5.10;3.20;;;;;;;10.09;81.71;100076.38;4934819;28;20071;-85
2023/10/23 11:10:31;;;;;;;7.68;3.95;;;;;;;10.15;81.85;100070.16;4966477;28;20050;-84
2023/10/23 11:12:58;;;;;;;9.63;3.65;;;;;;;10.20;81.79;100058.69;4948383;28;20055;-87
2023/10/23 11:15:25;;;;;;;10.15;4.05;;;;;;;10.21;81.76;100070.00;4941832;28;20066;-85
2023/10/23 11:17:53;;;;;;;5.95;3.50;;;;;;;10.36;81.27;100064.50;4934771;28;20051;-85
2023/10/23 11:20:21;;;;;;;8.00;3.75;;;;;;;10.27;80.93;100067.28;4936987;28;20047;-86
2023/10/23 11:22:48;;;;;;;6.57;3.47;;;;;;;10.23;81.68;100063.84;4948548;28;20566;-85
2023/10/23 11:25:16;;;;;;;6.38;3.80;;;;;;;10.26;81.13;100060.31;4951172;28;20047;-85
2023/10/23 11:27:43;;;;;;;6.55;3.08;;;;;;;10.09;80.73;100048.41;4930060;28;20052;-86
2023/10/23 11:30:10;;;;;;;10.15;3.60;;;;;;;10.10;81.46;100042.25;4944167;28;20058;-86
2023/10/23 11:32:37;;;;;;;5.97;3.45;;;;;;;10.39;81.23;100035.59;4960275;28;20056;-86
2023/10/23 11:35:05;;;;;;;6.40;3.65;;;;;;;10.41;80.97;100032.94;4945284;28;20058;-86
2023/10/23 11:37:42;;;;;;;6.00;3.80;;;;;;;10.02;80.94;100032.81;4945861;28;20208;-86